sensor_id;sensor_type;location;lat;lon;timestamp;P1;durP1;ratioP1;P2;durP2;ratioP2
47812;SDS011;34221;45.296;9.516;2023-04-06T00:00:01;8.75;;;6.00;;
47812;SDS011;34221;45.296;9.516;2023-04-06T00:00:23;9.77;;;6.15;;
47812;SDS011;34221;45.296;9.516;2023-04-06T00:00:38;10.27;;;6.60;;
47812;SDS011;34221;45.296;9.516;2023-04-06T00:00:53;9.07;;;6.40;;
47812;SDS011;34221;45.296;9.516;2023-04-06T00:01:09;9.45;;;5.78;;
47812;SDS011;34221;45.296;9.516;2023-04-06T00:01:24;10.23;;;5.63;;
47812;SDS011;34221;45.296;9.516;2023-04-06T00:01:39;8.35;;;5.82;;
47812;SDS011;34221;45.296;9.516;2023-04-06T00:01:55;9.05;;;6.15;;
47812;SDS011;34221;45.296;9.516;2023-04-06T00:02:10;10.52;;;6.22;;
47812;SDS011;34221;45.296;9.516;2023-04-06T00:02:25;9.73;;;6.03;;
47812;SDS011;34221;45.296;9.516;2023-04-06T00:03:00;10.55;;;6.13;;
47812;SDS011;34221;45.296;9.516;2023-04-06T00:03:15;9.05;;;6.22;;
47812;SDS011;34221;45.296;9.516;2023-04-06T00:03:30;10.07;;;6.68;;
47812;SDS011;34221;45.296;9.516;2023-04-06T00:03:45;10.13;;;6.53;;
47812;SDS011;34221;45.296;9.516;2023-04-06T00:04:00;8.70;;;5.88;;
47812;SDS011;34221;45.296;9.516;2023-04-06T00:04:15;8.80;;;6.07;;
47812;SDS011;34221;45.296;9.516;2023-04-06T00:04:30;9.82;;;6.38;;
47812;SDS011;34221;45.296;9.516;2023-04-06T00:04:45;8.77;;;5.95;;
47812;SDS011;34221;45.296;9.516;2023-04-06T00:05:00;8.00;;;6.10;;
47812;SDS011;34221;45.296;9.516;2023-04-06T00:05:15;8.10;;;6.15;;
47812;SDS011;34221;45.296;9.516;2023-04-06T00:05:30;7.60;;;5.57;;
47812;SDS011;34221;45.296;9.516;2023-04-06T00:05:46;8.73;;;6.07;;
47812;SDS011;34221;45.296;9.516;2023-04-06T00:06:02;9.30;;;6.68;;
47812;SDS011;34221;45.296;9.516;2023-04-06T00:06:17;10.40;;;6.63;;
47812;SDS011;34221;45.296;9.516;2023-04-06T00:06:32;11.07;;;6.53;;
47812;SDS011;34221;45.296;9.516;2023-04-06T00:06:48;10.68;;;6.43;;
47812;SDS011;34221;45.296;9.516;2023-04-06T00:07:03;10.33;;;6.40;;
47812;SDS011;34221;45.296;9.516;2023-04-06T00:07:18;9.15;;;6.07;;
47812;SDS011;34221;45.296;9.516;2023-04-06T00:07:34;10.52;;;6.45;;
47812;SDS011;34221;45.296;9.516;2023-04-06T00:07:49;10.07;;;6.40;;
47812;SDS011;34221;45.296;9.516;2023-04-06T00:08:04;9.13;;;5.97;;
47812;SDS011;34221;45.296;9.516;2023-04-06T00:08:19;9.15;;;5.90;;
47812;SDS011;34221;45.296;9.516;2023-04-06T00:08:35;9.25;;;5.95;;
47812;SDS011;34221;45.296;9.516;2023-04-06T00:08:50;10.33;;;6.13;;
47812;SDS011;34221;45.296;9.516;2023-04-06T00:09:05;10.33;;;6.33;;
47812;SDS011;34221;45.296;9.516;2023-04-06T00:09:20;10.17;;;6.17;;
47812;SDS011;34221;45.296;9.516;2023-04-06T00:09:35;9.85;;;5.75;;
47812;SDS011;34221;45.296;9.516;2023-04-06T00:09:50;9.52;;;6.20;;
47812;SDS011;34221;45.296;9.516;2023-04-06T00:10:05;10.13;;;6.55;;
47812;SDS011;34221;45.296;9.516;2023-04-06T00:10:21;9.55;;;6.22;;
47812;SDS011;34221;45.296;9.516;2023-04-06T00:10:36;9.48;;;5.95;;
47812;SDS011;34221;45.296;9.516;2023-04-06T00:10:51;9.20;;;5.75;;
47812;SDS011;34221;45.296;9.516;2023-04-06T00:11:06;10.70;;;5.97;;
47812;SDS011;34221;45.296;9.516;2023-04-06T00:11:21;10.45;;;6.10;;
47812;SDS011;34221;45.296;9.516;2023-04-06T00:11:36;9.98;;;6.25;;
47812;SDS011;34221;45.296;9.516;2023-04-06T00:11:51;10.52;;;6.20;;
47812;SDS011;34221;45.296;9.516;2023-04-06T00:12:06;11.45;;;6.05;;
47812;SDS011;34221;45.296;9.516;2023-04-06T00:12:21;11.70;;;6.13;;
47812;SDS011;34221;45.296;9.516;2023-04-06T00:12:36;9.63;;;6.35;;
47812;SDS011;34221;45.296;9.516;2023-04-06T00:12:52;8.98;;;6.45;;
47812;SDS011;34221;45.296;9.516;2023-04-06T00:13:08;8.50;;;6.10;;
47812;SDS011;34221;45.296;9.516;2023-04-06T00:13:23;8.75;;;6.00;;
47812;SDS011;34221;45.296;9.516;2023-04-06T00:13:38;9.15;;;5.82;;
47812;SDS011;34221;45.296;9.516;2023-04-06T00:13:53;7.65;;;5.47;;
47812;SDS011;34221;45.296;9.516;2023-04-06T00:14:08;8.85;;;5.70;;
47812;SDS011;34221;45.296;9.516;2023-04-06T00:14:23;10.95;;;5.95;;
47812;SDS011;34221;45.296;9.516;2023-04-06T00:14:38;9.10;;;5.55;;
47812;SDS011;34221;45.296;9.516;2023-04-06T00:14:53;9.52;;;5.80;;
47812;SDS011;34221;45.296;9.516;2023-04-06T00:15:08;9.65;;;5.97;;
47812;SDS011;34221;45.296;9.516;2023-04-06T00:15:24;8.95;;;5.90;;
47812;SDS011;34221;45.296;9.516;2023-04-06T00:15:39;9.30;;;5.80;;
47812;SDS011;34221;45.296;9.516;2023-04-06T00:15:54;8.20;;;5.75;;
47812;SDS011;34221;45.296;9.516;2023-04-06T00:16:09;10.55;;;6.03;;
47812;SDS011;34221;45.296;9.516;2023-04-06T00:16:24;10.90;;;6.32;;
47812;SDS011;34221;45.296;9.516;2023-04-06T00:16:39;9.65;;;6.13;;
47812;SDS011;34221;45.296;9.516;2023-04-06T00:16:55;9.05;;;6.00;;
47812;SDS011;34221;45.296;9.516;2023-04-06T00:17:10;8.40;;;5.95;;
47812;SDS011;34221;45.296;9.516;2023-04-06T00:17:25;10.82;;;6.07;;
47812;SDS011;34221;45.296;9.516;2023-04-06T00:17:40;11.77;;;6.05;;
47812;SDS011;34221;45.296;9.516;2023-04-06T00:17:55;10.88;;;6.03;;
47812;SDS011;34221;45.296;9.516;2023-04-06T00:18:10;11.38;;;6.53;;
47812;SDS011;34221;45.296;9.516;2023-04-06T00:18:25;11.55;;;6.50;;
47812;SDS011;34221;45.296;9.516;2023-04-06T00:18:40;9.50;;;6.00;;
47812;SDS011;34221;45.296;9.516;2023-04-06T00:18:55;8.95;;;6.05;;
47812;SDS011;34221;45.296;9.516;2023-04-06T00:19:10;9.25;;;6.20;;
47812;SDS011;34221;45.296;9.516;2023-04-06T00:19:25;8.45;;;6.03;;
47812;SDS011;34221;45.296;9.516;2023-04-06T00:19:40;8.60;;;5.97;;
47812;SDS011;34221;45.296;9.516;2023-04-06T00:19:56;9.80;;;6.50;;
47812;SDS011;34221;45.296;9.516;2023-04-06T00:20:11;10.32;;;6.63;;
47812;SDS011;34221;45.296;9.516;2023-04-06T00:20:26;8.85;;;6.13;;
47812;SDS011;34221;45.296;9.516;2023-04-06T00:20:41;8.93;;;6.07;;
47812;SDS011;34221;45.296;9.516;2023-04-06T00:20:56;10.18;;;6.43;;
47812;SDS011;34221;45.296;9.516;2023-04-06T00:21:11;9.23;;;6.18;;
47812;SDS011;34221;45.296;9.516;2023-04-06T00:21:28;8.68;;;6.07;;
47812;SDS011;34221;45.296;9.516;2023-04-06T00:21:43;8.13;;;5.88;;
47812;SDS011;34221;45.296;9.516;2023-04-06T00:21:58;8.48;;;6.03;;
47812;SDS011;34221;45.296;9.516;2023-04-06T00:22:13;11.02;;;6.70;;
47812;SDS011;34221;45.296;9.516;2023-04-06T00:22:28;10.90;;;6.35;;
47812;SDS011;34221;45.296;9.516;2023-04-06T00:22:44;11.32;;;6.53;;
47812;SDS011;34221;45.296;9.516;2023-04-06T00:22:59;10.90;;;6.32;;
47812;SDS011;34221;45.296;9.516;2023-04-06T00:23:14;9.48;;;6.13;;
47812;SDS011;34221;45.296;9.516;2023-04-06T00:23:29;9.95;;;6.40;;
47812;SDS011;34221;45.296;9.516;2023-04-06T00:23:44;13.75;;;6.15;;
47812;SDS011;34221;45.296;9.516;2023-04-06T00:24:00;13.15;;;6.25;;
47812;SDS011;34221;45.296;9.516;2023-04-06T00:24:14;9.32;;;6.07;;
47812;SDS011;34221;45.296;9.516;2023-04-06T00:24:29;10.45;;;6.40;;
47812;SDS011;34221;45.296;9.516;2023-04-06T00:24:44;9.77;;;6.70;;
47812;SDS011;34221;45.296;9.516;2023-04-06T00:24:59;9.30;;;6.60;;
47812;SDS011;34221;45.296;9.516;2023-04-06T00:25:14;10.00;;;6.85;;
47812;SDS011;34221;45.296;9.516;2023-04-06T00:25:29;10.25;;;6.75;;
47812;SDS011;34221;45.296;9.516;2023-04-06T00:25:44;9.50;;;6.32;;
47812;SDS011;34221;45.296;9.516;2023-04-06T00:25:59;8.25;;;6.03;;
47812;SDS011;34221;45.296;9.516;2023-04-06T00:26:15;7.93;;;5.95;;
47812;SDS011;34221;45.296;9.516;2023-04-06T00:26:33;7.85;;;5.90;;
47812;SDS011;34221;45.296;9.516;2023-04-06T00:26:48;8.90;;;6.35;;
47812;SDS011;34221;45.296;9.516;2023-04-06T00:27:03;10.40;;;6.50;;
47812;SDS011;34221;45.296;9.516;2023-04-06T00:27:22;12.05;;;6.82;;
47812;SDS011;34221;45.296;9.516;2023-04-06T00:27:37;10.88;;;6.63;;
47812;SDS011;34221;45.296;9.516;2023-04-06T00:27:53;8.32;;;6.05;;
47812;SDS011;34221;45.296;9.516;2023-04-06T00:28:08;10.52;;;6.25;;
47812;SDS011;34221;45.296;9.516;2023-04-06T00:28:23;11.15;;;6.40;;
47812;SDS011;34221;45.296;9.516;2023-04-06T00:28:40;9.13;;;6.95;;
47812;SDS011;34221;45.296;9.516;2023-04-06T00:28:55;11.07;;;7.65;;
47812;SDS011;34221;45.296;9.516;2023-04-06T00:29:10;9.98;;;6.97;;
47812;SDS011;34221;45.296;9.516;2023-04-06T00:29:25;8.60;;;6.15;;
47812;SDS011;34221;45.296;9.516;2023-04-06T00:29:40;9.43;;;6.35;;
47812;SDS011;34221;45.296;9.516;2023-04-06T00:29:55;9.43;;;6.43;;
47812;SDS011;34221;45.296;9.516;2023-04-06T00:30:10;9.07;;;6.60;;
47812;SDS011;34221;45.296;9.516;2023-04-06T00:30:26;8.70;;;6.47;;
47812;SDS011;34221;45.296;9.516;2023-04-06T00:30:41;9.05;;;6.20;;
47812;SDS011;34221;45.296;9.516;2023-04-06T00:30:56;10.70;;;6.75;;
47812;SDS011;34221;45.296;9.516;2023-04-06T00:31:11;11.55;;;7.13;;
47812;SDS011;34221;45.296;9.516;2023-04-06T00:31:26;11.13;;;7.20;;
47812;SDS011;34221;45.296;9.516;2023-04-06T00:31:41;11.05;;;7.28;;
47812;SDS011;34221;45.296;9.516;2023-04-06T00:31:56;11.35;;;7.30;;
47812;SDS011;34221;45.296;9.516;2023-04-06T00:32:11;10.30;;;6.80;;
47812;SDS011;34221;45.296;9.516;2023-04-06T00:32:26;9.85;;;6.60;;
47812;SDS011;34221;45.296;9.516;2023-04-06T00:32:42;10.88;;;6.85;;
47812;SDS011;34221;45.296;9.516;2023-04-06T00:32:57;10.43;;;6.97;;
47812;SDS011;34221;45.296;9.516;2023-04-06T00:33:12;11.30;;;7.20;;
47812;SDS011;34221;45.296;9.516;2023-04-06T00:33:27;12.45;;;7.03;;
47812;SDS011;34221;45.296;9.516;2023-04-06T00:33:42;12.45;;;7.25;;
47812;SDS011;34221;45.296;9.516;2023-04-06T00:33:57;10.93;;;7.28;;
47812;SDS011;34221;45.296;9.516;2023-04-06T00:34:12;10.40;;;7.03;;
47812;SDS011;34221;45.296;9.516;2023-04-06T00:34:29;10.07;;;6.75;;
47812;SDS011;34221;45.296;9.516;2023-04-06T00:34:44;10.90;;;6.63;;
47812;SDS011;34221;45.296;9.516;2023-04-06T00:34:59;11.23;;;6.88;;
47812;SDS011;34221;45.296;9.516;2023-04-06T00:35:16;10.63;;;7.40;;
47812;SDS011;34221;45.296;9.516;2023-04-06T00:35:31;12.20;;;7.65;;
47812;SDS011;34221;45.296;9.516;2023-04-06T00:35:46;13.45;;;7.28;;
47812;SDS011;34221;45.296;9.516;2023-04-06T00:36:01;12.18;;;6.90;;
47812;SDS011;34221;45.296;9.516;2023-04-06T00:36:17;10.70;;;7.18;;
47812;SDS011;34221;45.296;9.516;2023-04-06T00:36:32;10.93;;;7.45;;
47812;SDS011;34221;45.296;9.516;2023-04-06T00:36:47;11.38;;;7.43;;
47812;SDS011;34221;45.296;9.516;2023-04-06T00:37:02;11.75;;;6.97;;
47812;SDS011;34221;45.296;9.516;2023-04-06T00:37:17;10.70;;;6.90;;
47812;SDS011;34221;45.296;9.516;2023-04-06T00:37:32;12.40;;;7.45;;
47812;SDS011;34221;45.296;9.516;2023-04-06T00:37:47;12.77;;;7.05;;
47812;SDS011;34221;45.296;9.516;2023-04-06T00:38:05;13.18;;;7.20;;
47812;SDS011;34221;45.296;9.516;2023-04-06T00:38:20;12.47;;;7.07;;
47812;SDS011;34221;45.296;9.516;2023-04-06T00:38:35;9.80;;;6.45;;
47812;SDS011;34221;45.296;9.516;2023-04-06T00:38:50;10.20;;;6.75;;
47812;SDS011;34221;45.296;9.516;2023-04-06T00:39:05;9.90;;;7.03;;
47812;SDS011;34221;45.296;9.516;2023-04-06T00:39:21;11.43;;;7.78;;
47812;SDS011;34221;45.296;9.516;2023-04-06T00:39:36;11.07;;;7.68;;
47812;SDS011;34221;45.296;9.516;2023-04-06T00:39:51;11.07;;;7.20;;
47812;SDS011;34221;45.296;9.516;2023-04-06T00:40:06;12.38;;;7.30;;
47812;SDS011;34221;45.296;9.516;2023-04-06T00:40:22;10.30;;;6.97;;
47812;SDS011;34221;45.296;9.516;2023-04-06T00:40:37;9.48;;;6.70;;
47812;SDS011;34221;45.296;9.516;2023-04-06T00:40:53;11.55;;;6.97;;
47812;SDS011;34221;45.296;9.516;2023-04-06T00:41:09;12.57;;;6.90;;
47812;SDS011;34221;45.296;9.516;2023-04-06T00:41:24;10.52;;;6.70;;
47812;SDS011;34221;45.296;9.516;2023-04-06T00:41:41;12.05;;;7.15;;
47812;SDS011;34221;45.296;9.516;2023-04-06T00:42:01;13.75;;;7.47;;
47812;SDS011;34221;45.296;9.516;2023-04-06T00:42:28;10.02;;;7.30;;
47812;SDS011;34221;45.296;9.516;2023-04-06T00:42:43;9.57;;;6.82;;
47812;SDS011;34221;45.296;9.516;2023-04-06T00:42:58;11.25;;;6.90;;
47812;SDS011;34221;45.296;9.516;2023-04-06T00:43:14;12.27;;;6.90;;
47812;SDS011;34221;45.296;9.516;2023-04-06T00:43:29;11.98;;;6.97;;
47812;SDS011;34221;45.296;9.516;2023-04-06T00:43:44;13.80;;;7.53;;
47812;SDS011;34221;45.296;9.516;2023-04-06T00:43:59;15.23;;;8.07;;
47812;SDS011;34221;45.296;9.516;2023-04-06T00:44:14;13.13;;;7.55;;
47812;SDS011;34221;45.296;9.516;2023-04-06T00:44:29;12.88;;;6.75;;
47812;SDS011;34221;45.296;9.516;2023-04-06T00:44:46;17.88;;;7.43;;
47812;SDS011;34221;45.296;9.516;2023-04-06T00:45:01;14.55;;;7.45;;
47812;SDS011;34221;45.296;9.516;2023-04-06T00:45:16;10.10;;;6.95;;
47812;SDS011;34221;45.296;9.516;2023-04-06T00:45:32;10.40;;;7.05;;
47812;SDS011;34221;45.296;9.516;2023-04-06T00:45:47;11.25;;;7.60;;
47812;SDS011;34221;45.296;9.516;2023-04-06T00:46:02;10.52;;;7.28;;
47812;SDS011;34221;45.296;9.516;2023-04-06T00:46:17;10.63;;;7.05;;
47812;SDS011;34221;45.296;9.516;2023-04-06T00:46:32;11.27;;;7.28;;
47812;SDS011;34221;45.296;9.516;2023-04-06T00:46:47;12.00;;;7.53;;
47812;SDS011;34221;45.296;9.516;2023-04-06T00:47:02;12.95;;;7.80;;
47812;SDS011;34221;45.296;9.516;2023-04-06T00:47:17;13.15;;;7.68;;
47812;SDS011;34221;45.296;9.516;2023-04-06T00:47:33;11.55;;;7.28;;
47812;SDS011;34221;45.296;9.516;2023-04-06T00:47:48;10.13;;;7.00;;
47812;SDS011;34221;45.296;9.516;2023-04-06T00:48:03;11.93;;;7.45;;
47812;SDS011;34221;45.296;9.516;2023-04-06T00:48:19;12.85;;;7.93;;
47812;SDS011;34221;45.296;9.516;2023-04-06T00:48:34;12.52;;;7.72;;
47812;SDS011;34221;45.296;9.516;2023-04-06T00:48:49;11.95;;;7.78;;
47812;SDS011;34221;45.296;9.516;2023-04-06T00:49:04;11.57;;;7.97;;
47812;SDS011;34221;45.296;9.516;2023-04-06T00:49:19;16.13;;;8.20;;
47812;SDS011;34221;45.296;9.516;2023-04-06T00:49:34;16.13;;;7.97;;
47812;SDS011;34221;45.296;9.516;2023-04-06T00:49:49;16.25;;;8.23;;
47812;SDS011;34221;45.296;9.516;2023-04-06T00:50:04;15.48;;;7.97;;
47812;SDS011;34221;45.296;9.516;2023-04-06T00:50:20;12.55;;;7.28;;
47812;SDS011;34221;45.296;9.516;2023-04-06T00:50:35;11.85;;;7.32;;
47812;SDS011;34221;45.296;9.516;2023-04-06T00:50:50;11.00;;;7.38;;
47812;SDS011;34221;45.296;9.516;2023-04-06T00:51:05;12.27;;;7.60;;
47812;SDS011;34221;45.296;9.516;2023-04-06T00:51:22;11.75;;;7.65;;
47812;SDS011;34221;45.296;9.516;2023-04-06T00:51:37;12.05;;;8.18;;
47812;SDS011;34221;45.296;9.516;2023-04-06T00:51:52;12.95;;;8.35;;
47812;SDS011;34221;45.296;9.516;2023-04-06T00:52:07;12.75;;;7.68;;
47812;SDS011;34221;45.296;9.516;2023-04-06T00:52:22;14.10;;;7.68;;
47812;SDS011;34221;45.296;9.516;2023-04-06T00:52:37;16.20;;;7.90;;
47812;SDS011;34221;45.296;9.516;2023-04-06T00:52:55;14.43;;;7.50;;
47812;SDS011;34221;45.296;9.516;2023-04-06T00:53:14;11.77;;;7.57;;
47812;SDS011;34221;45.296;9.516;2023-04-06T00:53:29;11.93;;;8.15;;
47812;SDS011;34221;45.296;9.516;2023-04-06T00:53:46;16.33;;;8.48;;
47812;SDS011;34221;45.296;9.516;2023-04-06T00:54:02;16.08;;;8.38;;
47812;SDS011;34221;45.296;9.516;2023-04-06T00:54:20;12.30;;;7.82;;
47812;SDS011;34221;45.296;9.516;2023-04-06T00:54:35;12.63;;;7.80;;
47812;SDS011;34221;45.296;9.516;2023-04-06T00:54:50;11.80;;;7.85;;
47812;SDS011;34221;45.296;9.516;2023-04-06T00:55:07;13.10;;;8.43;;
47812;SDS011;34221;45.296;9.516;2023-04-06T00:55:28;12.85;;;8.35;;
47812;SDS011;34221;45.296;9.516;2023-04-06T00:55:45;13.18;;;8.35;;
47812;SDS011;34221;45.296;9.516;2023-04-06T00:56:00;13.95;;;7.80;;
47812;SDS011;34221;45.296;9.516;2023-04-06T00:56:18;12.32;;;8.05;;
47812;SDS011;34221;45.296;9.516;2023-04-06T00:56:39;13.48;;;8.13;;
47812;SDS011;34221;45.296;9.516;2023-04-06T00:56:57;13.63;;;7.63;;
47812;SDS011;34221;45.296;9.516;2023-04-06T00:57:14;10.98;;;7.18;;
47812;SDS011;34221;45.296;9.516;2023-04-06T00:57:31;9.38;;;7.22;;
47812;SDS011;34221;45.296;9.516;2023-04-06T00:57:46;11.40;;;7.50;;
47812;SDS011;34221;45.296;9.516;2023-04-06T00:58:02;13.55;;;8.02;;
47812;SDS011;34221;45.296;9.516;2023-04-06T00:58:23;12.27;;;8.27;;
47812;SDS011;34221;45.296;9.516;2023-04-06T00:58:44;13.43;;;7.57;;
47812;SDS011;34221;45.296;9.516;2023-04-06T00:58:59;13.10;;;7.47;;
47812;SDS011;34221;45.296;9.516;2023-04-06T00:59:14;14.40;;;8.05;;
47812;SDS011;34221;45.296;9.516;2023-04-06T00:59:30;14.88;;;8.27;;
47812;SDS011;34221;45.296;9.516;2023-04-06T00:59:48;11.63;;;7.90;;
47812;SDS011;34221;45.296;9.516;2023-04-06T01:00:03;12.52;;;7.93;;
47812;SDS011;34221;45.296;9.516;2023-04-06T01:00:19;13.88;;;7.93;;
47812;SDS011;34221;45.296;9.516;2023-04-06T01:00:37;13.15;;;8.23;;
47812;SDS011;34221;45.296;9.516;2023-04-06T01:00:52;11.65;;;8.05;;
47812;SDS011;34221;45.296;9.516;2023-04-06T01:01:10;11.45;;;7.90;;
47812;SDS011;34221;45.296;9.516;2023-04-06T01:01:25;13.40;;;8.60;;
47812;SDS011;34221;45.296;9.516;2023-04-06T01:01:43;20.77;;;9.13;;
47812;SDS011;34221;45.296;9.516;2023-04-06T01:02:12;13.20;;;8.13;;
47812;SDS011;34221;45.296;9.516;2023-04-06T01:02:35;15.98;;;8.32;;
47812;SDS011;34221;45.296;9.516;2023-04-06T01:02:51;14.88;;;8.38;;
47812;SDS011;34221;45.296;9.516;2023-04-06T01:03:10;12.52;;;8.48;;
47812;SDS011;34221;45.296;9.516;2023-04-06T01:03:29;13.17;;;8.10;;
47812;SDS011;34221;45.296;9.516;2023-04-06T01:03:44;13.35;;;8.02;;
47812;SDS011;34221;45.296;9.516;2023-04-06T01:04:04;13.63;;;8.13;;
47812;SDS011;34221;45.296;9.516;2023-04-06T01:04:26;16.38;;;8.55;;
47812;SDS011;34221;45.296;9.516;2023-04-06T01:04:42;14.07;;;8.60;;
47812;SDS011;34221;45.296;9.516;2023-04-06T01:05:04;12.77;;;8.85;;
47812;SDS011;34221;45.296;9.516;2023-04-06T01:05:33;13.10;;;8.63;;
47812;SDS011;34221;45.296;9.516;2023-04-06T01:05:49;12.95;;;8.52;;
47812;SDS011;34221;45.296;9.516;2023-04-06T01:06:11;12.15;;;8.40;;
47812;SDS011;34221;45.296;9.516;2023-04-06T01:06:28;14.60;;;8.63;;
47812;SDS011;34221;45.296;9.516;2023-04-06T01:06:49;15.10;;;8.45;;
47812;SDS011;34221;45.296;9.516;2023-04-06T01:07:04;15.02;;;8.70;;
47812;SDS011;34221;45.296;9.516;2023-04-06T01:07:28;15.95;;;8.63;;
47812;SDS011;34221;45.296;9.516;2023-04-06T01:08:00;14.18;;;9.25;;
47812;SDS011;34221;45.296;9.516;2023-04-06T01:08:16;13.13;;;8.55;;
47812;SDS011;34221;45.296;9.516;2023-04-06T01:08:33;13.40;;;8.35;;
47812;SDS011;34221;45.296;9.516;2023-04-06T01:09:01;12.18;;;8.65;;
47812;SDS011;34221;45.296;9.516;2023-04-06T01:09:17;13.50;;;9.02;;
47812;SDS011;34221;45.296;9.516;2023-04-06T01:09:32;11.70;;;8.77;;
47812;SDS011;34221;45.296;9.516;2023-04-06T01:09:55;11.93;;;8.30;;
47812;SDS011;34221;45.296;9.516;2023-04-06T01:10:26;12.32;;;8.35;;
47812;SDS011;34221;45.296;9.516;2023-04-06T01:10:51;14.48;;;8.77;;
47812;SDS011;34221;45.296;9.516;2023-04-06T01:11:16;14.88;;;8.52;;
47812;SDS011;34221;45.296;9.516;2023-04-06T01:11:32;14.20;;;8.98;;
47812;SDS011;34221;45.296;9.516;2023-04-06T01:11:50;13.73;;;8.77;;
47812;SDS011;34221;45.296;9.516;2023-04-06T01:12:08;12.55;;;8.57;;
47812;SDS011;34221;45.296;9.516;2023-04-06T01:12:24;11.57;;;8.52;;
47812;SDS011;34221;45.296;9.516;2023-04-06T01:12:39;12.15;;;8.05;;
47812;SDS011;34221;45.296;9.516;2023-04-06T01:12:59;13.80;;;8.55;;
47812;SDS011;34221;45.296;9.516;2023-04-06T01:13:34;14.65;;;8.40;;
47812;SDS011;34221;45.296;9.516;2023-04-06T01:13:52;14.85;;;8.48;;
47812;SDS011;34221;45.296;9.516;2023-04-06T01:14:30;13.82;;;8.57;;
47812;SDS011;34221;45.296;9.516;2023-04-06T01:14:48;14.32;;;9.00;;
47812;SDS011;34221;45.296;9.516;2023-04-06T01:15:04;14.02;;;9.10;;
47812;SDS011;34221;45.296;9.516;2023-04-06T01:15:22;13.63;;;8.80;;
47812;SDS011;34221;45.296;9.516;2023-04-06T01:15:39;14.38;;;8.60;;
47812;SDS011;34221;45.296;9.516;2023-04-06T01:15:57;14.35;;;8.93;;
47812;SDS011;34221;45.296;9.516;2023-04-06T01:16:19;11.75;;;8.27;;
47812;SDS011;34221;45.296;9.516;2023-04-06T01:16:46;15.00;;;9.05;;
47812;SDS011;34221;45.296;9.516;2023-04-06T01:17:04;16.75;;;9.10;;
47812;SDS011;34221;45.296;9.516;2023-04-06T01:17:21;15.30;;;8.90;;
47812;SDS011;34221;45.296;9.516;2023-04-06T01:17:36;12.27;;;8.48;;
47812;SDS011;34221;45.296;9.516;2023-04-06T01:17:58;10.55;;;8.10;;
47812;SDS011;34221;45.296;9.516;2023-04-06T01:18:13;11.13;;;8.32;;
47812;SDS011;34221;45.296;9.516;2023-04-06T01:18:35;14.63;;;8.80;;
47812;SDS011;34221;45.296;9.516;2023-04-06T01:19:15;15.90;;;8.73;;
47812;SDS011;34221;45.296;9.516;2023-04-06T01:19:34;14.95;;;8.55;;
47812;SDS011;34221;45.296;9.516;2023-04-06T01:19:50;15.70;;;9.23;;
47812;SDS011;34221;45.296;9.516;2023-04-06T01:20:14;12.52;;;8.57;;
47812;SDS011;34221;45.296;9.516;2023-04-06T01:20:29;12.38;;;8.82;;
47812;SDS011;34221;45.296;9.516;2023-04-06T01:20:46;14.65;;;8.85;;
47812;SDS011;34221;45.296;9.516;2023-04-06T01:21:02;25.33;;;9.40;;
47812;SDS011;34221;45.296;9.516;2023-04-06T01:21:17;23.05;;;9.05;;
47812;SDS011;34221;45.296;9.516;2023-04-06T01:21:47;14.30;;;8.55;;
47812;SDS011;34221;45.296;9.516;2023-04-06T01:22:18;12.07;;;9.00;;
47812;SDS011;34221;45.296;9.516;2023-04-06T01:22:50;13.68;;;9.20;;
47812;SDS011;34221;45.296;9.516;2023-04-06T01:23:06;12.77;;;9.23;;
47812;SDS011;34221;45.296;9.516;2023-04-06T01:23:21;12.00;;;8.88;;
47812;SDS011;34221;45.296;9.516;2023-04-06T01:23:36;11.88;;;8.60;;
47812;SDS011;34221;45.296;9.516;2023-04-06T01:23:52;13.80;;;8.60;;
47812;SDS011;34221;45.296;9.516;2023-04-06T01:24:13;14.55;;;8.75;;
47812;SDS011;34221;45.296;9.516;2023-04-06T01:24:46;13.13;;;8.38;;
47812;SDS011;34221;45.296;9.516;2023-04-06T01:25:10;14.85;;;9.40;;
47812;SDS011;34221;45.296;9.516;2023-04-06T01:25:42;15.10;;;9.73;;
47812;SDS011;34221;45.296;9.516;2023-04-06T01:25:57;14.70;;;9.20;;
47812;SDS011;34221;45.296;9.516;2023-04-06T01:26:12;13.60;;;9.05;;
47812;SDS011;34221;45.296;9.516;2023-04-06T01:26:28;13.98;;;9.15;;
47812;SDS011;34221;45.296;9.516;2023-04-06T01:26:46;13.85;;;8.65;;
47812;SDS011;34221;45.296;9.516;2023-04-06T01:27:01;13.98;;;8.32;;
47812;SDS011;34221;45.296;9.516;2023-04-06T01:27:25;14.60;;;8.80;;
47812;SDS011;34221;45.296;9.516;2023-04-06T01:28:02;12.82;;;8.80;;
47812;SDS011;34221;45.296;9.516;2023-04-06T01:28:43;14.15;;;9.13;;
47812;SDS011;34221;45.296;9.516;2023-04-06T01:29:13;14.80;;;9.77;;
47812;SDS011;34221;45.296;9.516;2023-04-06T01:29:28;13.77;;;9.00;;
47812;SDS011;34221;45.296;9.516;2023-04-06T01:29:46;15.13;;;9.25;;
47812;SDS011;34221;45.296;9.516;2023-04-06T01:30:07;14.60;;;9.07;;
47812;SDS011;34221;45.296;9.516;2023-04-06T01:30:39;14.13;;;9.38;;
47812;SDS011;34221;45.296;9.516;2023-04-06T01:31:02;14.38;;;9.63;;
47812;SDS011;34221;45.296;9.516;2023-04-06T01:31:37;15.57;;;9.63;;
47812;SDS011;34221;45.296;9.516;2023-04-06T01:31:53;18.55;;;9.88;;
47812;SDS011;34221;45.296;9.516;2023-04-06T01:32:08;16.10;;;8.93;;
47812;SDS011;34221;45.296;9.516;2023-04-06T01:32:32;13.20;;;9.35;;
47812;SDS011;34221;45.296;9.516;2023-04-06T01:32:48;12.07;;;8.98;;
47812;SDS011;34221;45.296;9.516;2023-04-06T01:33:07;13.23;;;8.63;;
47812;SDS011;34221;45.296;9.516;2023-04-06T01:33:40;12.52;;;9.13;;
47812;SDS011;34221;45.296;9.516;2023-04-06T01:33:59;13.30;;;8.77;;
47812;SDS011;34221;45.296;9.516;2023-04-06T01:34:14;14.88;;;9.05;;
47812;SDS011;34221;45.296;9.516;2023-04-06T01:34:30;14.98;;;9.07;;
47812;SDS011;34221;45.296;9.516;2023-04-06T01:34:49;16.10;;;9.07;;
47812;SDS011;34221;45.296;9.516;2023-04-06T01:35:05;16.40;;;9.23;;
47812;SDS011;34221;45.296;9.516;2023-04-06T01:35:25;13.90;;;8.82;;
47812;SDS011;34221;45.296;9.516;2023-04-06T01:35:50;13.88;;;8.98;;
47812;SDS011;34221;45.296;9.516;2023-04-06T01:36:07;12.02;;;8.98;;
47812;SDS011;34221;45.296;9.516;2023-04-06T01:36:23;12.80;;;9.20;;
47812;SDS011;34221;45.296;9.516;2023-04-06T01:36:46;14.05;;;9.05;;
47812;SDS011;34221;45.296;9.516;2023-04-06T01:37:13;15.30;;;9.82;;
47812;SDS011;34221;45.296;9.516;2023-04-06T01:37:28;13.65;;;9.82;;
47812;SDS011;34221;45.296;9.516;2023-04-06T01:37:47;13.15;;;8.93;;
47812;SDS011;34221;45.296;9.516;2023-04-06T01:38:09;14.15;;;9.20;;
47812;SDS011;34221;45.296;9.516;2023-04-06T01:38:25;12.63;;;8.70;;
47812;SDS011;34221;45.296;9.516;2023-04-06T01:38:41;13.35;;;9.10;;
47812;SDS011;34221;45.296;9.516;2023-04-06T01:38:56;13.82;;;8.90;;
47812;SDS011;34221;45.296;9.516;2023-04-06T01:39:19;13.93;;;8.98;;
47812;SDS011;34221;45.296;9.516;2023-04-06T01:39:35;15.63;;;9.45;;
47812;SDS011;34221;45.296;9.516;2023-04-06T01:39:52;14.18;;;9.30;;
47812;SDS011;34221;45.296;9.516;2023-04-06T01:40:17;16.90;;;9.20;;
47812;SDS011;34221;45.296;9.516;2023-04-06T01:40:37;16.45;;;9.18;;
47812;SDS011;34221;45.296;9.516;2023-04-06T01:40:52;13.05;;;8.60;;
47812;SDS011;34221;45.296;9.516;2023-04-06T01:41:10;17.15;;;9.23;;
47812;SDS011;34221;45.296;9.516;2023-04-06T01:41:35;14.60;;;9.55;;
47812;SDS011;34221;45.296;9.516;2023-04-06T01:41:50;15.02;;;9.20;;
47812;SDS011;34221;45.296;9.516;2023-04-06T01:42:07;15.57;;;9.52;;
47812;SDS011;34221;45.296;9.516;2023-04-06T01:42:24;14.65;;;9.02;;
47812;SDS011;34221;45.296;9.516;2023-04-06T01:42:40;13.15;;;9.10;;
47812;SDS011;34221;45.296;9.516;2023-04-06T01:42:57;13.15;;;9.25;;
47812;SDS011;34221;45.296;9.516;2023-04-06T01:43:22;14.38;;;8.98;;
47812;SDS011;34221;45.296;9.516;2023-04-06T01:43:55;11.98;;;9.20;;